Time;durP1;ratioP1;P1;durP2;ratioP2;P2;SDS_P1;SDS_P2;PMS_P1;PMS_P2;Temp;Humidity;BMP_temperature;BMP_pressure;BME280_temperature;BME280_humidity;BME280_pressure;Samples;Min_cycle;Max_cycle;Signal;HPM_P1;HPM_P2
2022/09/29 00:00:34;;;;;;;23.60;12.32;;;6.10;99.90;;;;;;4957113;28;20467;-80
2022/09/29 00:03:00;;;;;;;22.30;14.15;;;5.90;99.90;;;;;;4958500;28;20035;-79
2022/09/29 00:05:25;;;;;;;12.32;9.57;;;5.80;99.90;;;;;;4958309;28;20078;-80
2022/09/29 00:07:51;;;;;;;14.48;11.23;;;5.80;99.90;;;;;;4957703;28;20459;-80
2022/09/29 00:10:17;;;;;;;19.70;12.55;;;5.90;99.90;;;;;;4973462;28;20340;-80
2022/09/29 00:12:42;;;;;;;16.58;11.52;;;5.90;99.90;;;;;;4942407;28;20567;-80
2022/09/29 00:15:08;;;;;;;17.70;13.07;;;5.90;99.90;;;;;;4962337;28;20428;-80
2022/09/29 00:17:34;;;;;;;14.95;11.82;;;5.90;99.90;;;;;;4960051;28;20031;-80
2022/09/29 00:20:00;;;;;;;11.40;7.88;;;5.90;99.90;;;;;;4939049;28;20062;-80
2022/09/29 00:22:25;;;;;;;13.68;9.27;;;5.90;99.90;;;;;;4948427;28;20031;-79
2022/09/29 00:24:51;;;;;;;11.60;8.88;;;6.20;99.90;;;;;;4930161;28;20065;-79
2022/09/29 00:27:17;;;;;;;18.42;11.05;;;6.20;99.90;;;;;;4959194;28;20034;-80
2022/09/29 00:29:43;;;;;;;10.48;7.95;;;6.10;99.90;;;;;;4942264;28;20026;-80
2022/09/29 00:32:09;;;;;;;17.15;12.10;;;6.10;99.90;;;;;;4960880;28;20077;-79
2022/09/29 00:34:35;;;;;;;11.13;8.13;;;6.00;99.90;;;;;;4943523;28;20042;-80
2022/09/29 00:37:01;;;;;;;18.27;13.02;;;6.00;99.90;;;;;;4977117;28;20027;-79
2022/09/29 00:39:27;;;;;;;18.85;13.68;;;5.80;99.90;;;;;;4956831;28;20054;-78
2022/09/29 00:41:52;;;;;;;20.88;12.90;;;5.70;99.90;;;;;;4942439;28;20170;-78
2022/09/29 00:44:21;;;;;;;17.15;12.07;;;5.70;99.90;;;;;;4945024;28;20039;-78
2022/09/29 00:46:55;;;;;;;21.38;13.30;;;5.70;99.90;;;;;;4956519;28;20044;-79
2022/09/29 00:49:44;;;;;;;19.70;12.93;;;5.80;99.90;;;;;;4960333;28;20089;-78
2022/09/29 00:52:29;;;;;;;20.27;14.27;;;5.90;99.90;;;;;;4946016;28;20054;-79
2022/09/29 00:55:04;;;;;;;21.60;13.27;;;5.90;99.90;;;;;;4954177;28;20035;-80
2022/09/29 00:57:33;;;;;;;24.85;14.25;;;5.70;99.90;;;;;;4938676;28;20117;-80
2022/09/29 01:00:07;;;;;;;20.30;14.40;;;5.60;99.90;;;;;;4962634;28;20495;-80
2022/09/29 01:02:34;;;;;;;20.13;14.45;;;5.60;99.90;;;;;;4944262;28;20034;-80
2022/09/29 01:05:00;;;;;;;23.38;15.52;;;5.50;99.90;;;;;;4969162;28;20106;-79
2022/09/29 01:07:27;;;;;;;19.23;12.75;;;5.50;99.90;;;;;;4972566;28;20035;-80
2022/09/29 01:09:53;;;;;;;18.67;11.98;;;5.60;99.90;;;;;;4969364;28;20054;-79
2022/09/29 01:12:20;;;;;;;19.25;13.13;;;5.60;99.90;;;;;;4953623;28;20046;-80
2022/09/29 01:14:46;;;;;;;19.38;12.50;;;5.70;99.90;;;;;;4942746;28;20158;-80
2022/09/29 01:17:11;;;;;;;18.20;12.15;;;5.70;99.90;;;;;;4954034;28;20122;-80
2022/09/29 01:20:12;;;;;;;14.38;10.15;;;5.80;99.90;;;;;;4954430;28;20127;-79
2022/09/29 01:22:56;;;;;;;19.50;13.30;;;5.80;99.90;;;;;;4932006;28;20047;-80
2022/09/29 01:25:40;;;;;;;20.83;13.20;;;5.80;99.90;;;;;;4935689;28;20552;-79
2022/09/29 01:28:58;;;;;;;21.95;14.00;;;5.80;99.90;;;;;;4954161;28;20031;-79
2022/09/29 01:31:41;;;;;;;23.38;13.75;;;5.70;99.90;;;;;;4937386;28;20047;-79
2022/09/29 01:34:35;;;;;;;21.50;14.60;;;5.60;99.90;;;;;;4935835;28;20035;-80
2022/09/29 01:37:23;;;;;;;28.83;15.13;;;5.50;99.90;;;;;;4938296;28;20409;-80
2022/09/29 01:40:08;;;;;;;22.17;15.38;;;5.40;99.90;;;;;;4917271;28;20396;-79
2022/09/29 01:42:38;;;;;;;22.63;15.27;;;5.40;99.90;;;;;;4961061;28;20031;-80
2022/09/29 01:45:13;;;;;;;21.73;14.27;;;5.40;99.90;;;;;;4927579;28;20082;-80
2022/09/29 01:47:53;;;;;;;22.75;15.05;;;5.40;99.90;;;;;;4940053;28;20031;-79
2022/09/29 01:50:26;;;;;;;22.45;13.80;;;5.40;99.90;;;;;;4919583;28;20042;-79
2022/09/29 01:52:56;;;;;;;21.95;13.90;;;5.40;99.90;;;;;;4922733;28;20055;-79
2022/09/29 01:55:24;;;;;;;22.08;15.00;;;5.50;99.90;;;;;;4941245;28;20811;-80
2022/09/29 01:57:58;;;;;;;24.55;14.07;;;5.50;99.90;;;;;;4936703;28;20038;-79
2022/09/29 02:00:24;;;;;;;22.52;14.98;;;5.40;99.90;;;;;;4941348;28;20032;-80
2022/09/29 02:03:12;;;;;;;18.05;12.85;;;5.50;99.90;;;;;;4949785;28;20449;-80
2022/09/29 02:05:51;;;;;;;19.75;14.50;;;5.50;99.90;;;;;;4938392;28;20078;-79
2022/09/29 02:08:39;;;;;;;18.48;13.43;;;5.50;99.90;;;;;;4927371;28;20146;-80
2022/09/29 02:11:10;;;;;;;20.38;12.20;;;5.40;99.90;;;;;;4938251;28;20118;-79
2022/09/29 02:13:39;;;;;;;14.52;11.60;;;5.40;99.90;;;;;;4950993;28;20035;-79
2022/09/29 02:16:05;;;;;;;17.63;11.65;;;5.50;99.90;;;;;;4948854;28;20317;-79
2022/09/29 02:18:47;;;;;;;15.88;11.25;;;5.50;99.90;;;;;;4973130;28;20035;-79
2022/09/29 02:21:13;;;;;;;16.98;11.50;;;5.50;99.90;;;;;;4959304;28;20046;-79
2022/09/29 02:23:38;;;;;;;17.65;12.80;;;5.60;99.90;;;;;;4975880;28;20032;-79
2022/09/29 02:26:04;;;;;;;18.27;12.27;;;5.40;99.90;;;;;;4954957;28;20056;-79
2022/09/29 02:28:30;;;;;;;21.52;13.23;;;5.40;99.90;;;;;;4953773;28;20118;-79
2022/09/29 02:30:55;;;;;;;22.85;13.48;;;5.30;99.90;;;;;;4942590;28;20054;-80
2022/09/29 02:33:22;;;;;;;15.00;10.23;;;5.40;99.90;;;;;;4967547;28;20035;-79
2022/09/29 02:35:57;;;;;;;19.83;12.90;;;5.30;99.90;;;;;;4955048;28;20122;-79
2022/09/29 02:39:09;;;;;;;17.42;12.18;;;5.30;99.90;;;;;;4942565;28;20039;-80
2022/09/29 02:41:56;;;;;;;18.83;14.30;;;5.20;99.90;;;;;;4955170;28;20041;-79
2022/09/29 02:44:30;;;;;;;12.13;9.50;;;5.10;99.90;;;;;;4962095;28;20072;-80
2022/09/29 02:47:02;;;;;;;21.17;10.98;;;5.20;99.90;;;;;;4959440;28;20027;-79
2022/09/29 02:49:52;;;;;;;11.55;8.82;;;5.40;99.90;;;;;;4963347;28;20391;-80
2022/09/29 02:52:37;;;;;;;18.83;11.75;;;5.50;99.90;;;;;;4961871;28;20995;-79
2022/09/29 02:55:08;;;;;;;15.75;11.18;;;5.40;99.90;;;;;;4961600;28;20049;-79
2022/09/29 02:57:42;;;;;;;16.02;11.73;;;5.30;99.90;;;;;;4959551;28;20101;-79
2022/09/29 03:00:10;;;;;;;16.98;11.05;;;5.30;99.90;;;;;;4927289;28;20051;-79
2022/09/29 03:02:39;;;;;;;16.02;10.65;;;5.40;99.90;;;;;;4945506;28;20387;-79
2022/09/29 03:05:06;;;;;;;16.40;10.90;;;5.50;99.90;;;;;;4943402;28;20058;-79
2022/09/29 03:07:32;;;;;;;17.85;12.23;;;5.40;99.90;;;;;;4958779;28;20030;-79
2022/09/29 03:09:58;;;;;;;15.35;11.27;;;5.30;99.90;;;;;;4947952;28;20394;-79
2022/09/29 03:12:23;;;;;;;17.25;11.82;;;5.30;99.90;;;;;;4976079;28;20069;-79
2022/09/29 03:14:49;;;;;;;14.23;11.27;;;5.20;99.90;;;;;;4955979;28;20042;-79
2022/09/29 03:17:14;;;;;;;17.23;12.45;;;5.20;99.90;;;;;;4945770;28;20039;-79
2022/09/29 03:19:40;;;;;;;14.80;10.57;;;5.20;99.90;;;;;;4950482;28;20438;-79
2022/09/29 03:22:05;;;;;;;13.82;10.55;;;5.20;99.90;;;;;;4940535;28;20035;-79
2022/09/29 03:24:31;;;;;;;15.25;10.57;;;5.20;99.90;;;;;;4944165;28;20037;-79
2022/09/29 03:26:56;;;;;;;17.45;12.95;;;5.20;99.90;;;;;;4943809;28;20035;-79
2022/09/29 03:29:22;;;;;;;20.98;13.05;;;5.10;99.90;;;;;;4973244;28;20035;-79
2022/09/29 03:31:48;;;;;;;16.98;12.35;;;5.10;99.90;;;;;;4946329;28;20534;-79
2022/09/29 03:34:13;;;;;;;14.40;11.02;;;5.00;99.90;;;;;;4944637;28;20045;-79
2022/09/29 03:36:40;;;;;;;21.00;13.85;;;5.10;99.90;;;;;;4956837;28;20038;-80
2022/09/29 03:39:07;;;;;;;19.75;13.73;;;5.00;99.90;;;;;;4949381;28;20053;-79
2022/09/29 03:41:32;;;;;;;22.45;14.88;;;4.90;99.90;;;;;;4942138;28;20445;-79
2022/09/29 03:43:58;;;;;;;21.67;14.25;;;4.80;99.90;;;;;;4943179;28;20031;-80
2022/09/29 03:46:23;;;;;;;24.83;12.98;;;4.80;99.90;;;;;;4974163;28;20462;-79
2022/09/29 03:48:49;;;;;;;19.38;13.70;;;4.70;99.90;;;;;;4958972;28;20043;-79
2022/09/29 03:51:14;;;;;;;21.55;12.93;;;4.70;99.90;;;;;;4942562;28;20507;-79
2022/09/29 03:53:40;;;;;;;21.25;13.68;;;4.80;99.90;;;;;;4942734;28;20483;-79
2022/09/29 03:56:06;;;;;;;22.15;12.52;;;4.80;99.90;;;;;;4945918;28;20109;-79
2022/09/29 03:58:33;;;;;;;17.80;12.95;;;4.80;99.90;;;;;;4941920;28;20042;-79
2022/09/29 04:00:59;;;;;;;22.08;13.57;;;4.80;99.90;;;;;;4956727;28;20492;-79
2022/09/29 04:03:24;;;;;;;17.55;12.38;;;4.80;99.90;;;;;;4948431;28;20030;-79
2022/09/29 04:05:50;;;;;;;22.48;14.60;;;4.70;99.90;;;;;;4948755;28;20097;-79
2022/09/29 04:08:16;;;;;;;17.08;10.98;;;4.80;99.90;;;;;;4958427;28;20520;-79
2022/09/29 04:10:41;;;;;;;16.63;11.80;;;4.70;99.90;;;;;;4957783;28;20571;-79
2022/09/29 04:13:07;;;;;;;15.32;11.50;;;4.80;99.90;;;;;;4959587;28;20519;-80
2022/09/29 04:15:32;;;;;;;11.60;8.73;;;4.80;99.90;;;;;;4960087;28;20039;-79
2022/09/29 04:17:58;;;;;;;15.95;11.10;;;4.80;99.90;;;;;;4927222;28;20050;-79
2022/09/29 04:20:24;;;;;;;17.95;11.25;;;4.80;99.90;;;;;;4963306;28;20031;-79
2022/09/29 04:22:49;;;;;;;12.55;10.57;;;4.80;99.90;;;;;;4945096;28;20038;-79
2022/09/29 04:25:15;;;;;;;14.93;10.50;;;4.80;99.90;;;;;;4947445;28;20089;-79
2022/09/29 04:27:40;;;;;;;12.38;9.93;;;4.80;99.90;;;;;;4959287;28;20536;-79
2022/09/29 04:30:32;;;;;;;16.15;11.85;;;4.80;99.90;;;;;;4947805;28;20038;-79
2022/09/29 04:33:04;;;;;;;12.25;9.82;;;4.70;99.90;;;;;;4925820;28;20261;-78
2022/09/29 04:35:30;;;;;;;17.63;12.80;;;4.70;99.90;;;;;;4929854;28;20110;-79
2022/09/29 04:37:57;;;;;;;17.42;13.15;;;4.70;99.90;;;;;;4930181;28;20348;-79
2022/09/29 04:40:23;;;;;;;16.15;12.02;;;4.60;99.90;;;;;;4946586;28;20045;-79
2022/09/29 04:42:49;;;;;;;21.05;13.30;;;4.60;99.90;;;;;;4944117;28;20038;-80
2022/09/29 04:45:14;;;;;;;17.38;12.52;;;4.50;99.90;;;;;;4937906;28;20070;-79
2022/09/29 04:47:40;;;;;;;17.50;12.07;;;4.50;99.90;;;;;;4948154;28;20034;-78
2022/09/29 04:50:06;;;;;;;15.88;11.93;;;4.50;99.90;;;;;;4962281;28;20041;-79
2022/09/29 04:52:35;;;;;;;20.05;12.40;;;4.50;99.90;;;;;;4954292;28;20082;-77
2022/09/29 04:55:02;;;;;;;17.60;11.98;;;4.40;99.90;;;;;;4960024;28;20118;-78
2022/09/29 04:57:27;;;;;;;18.58;10.95;;;4.40;99.90;;;;;;4958758;28;20998;-78
2022/09/29 04:59:53;;;;;;;17.60;12.23;;;4.40;99.90;;;;;;4955917;28;20122;-78
2022/09/29 05:02:18;;;;;;;17.38;12.43;;;4.40;99.90;;;;;;4962265;28;20040;-79
2022/09/29 05:04:46;;;;;;;18.13;12.55;;;4.50;99.90;;;;;;4956596;28;20134;-79
2022/09/29 05:07:12;;;;;;;12.43;8.85;;;4.40;99.90;;;;;;4934126;28;20065;-79
2022/09/29 05:09:37;;;;;;;20.50;13.80;;;4.40;99.90;;;;;;4960651;28;20439;-79
2022/09/29 05:12:05;;;;;;;21.40;13.43;;;4.50;99.90;;;;;;4971831;28;20105;-79
2022/09/29 05:14:31;;;;;;;18.10;12.65;;;4.30;99.90;;;;;;4958020;28;20125;-78
2022/09/29 05:16:57;;;;;;;17.15;12.90;;;4.30;99.90;;;;;;4940507;28;20122;-78
2022/09/29 05:19:23;;;;;;;20.60;14.20;;;4.30;99.90;;;;;;4959043;28;20047;-79
2022/09/29 05:21:49;;;;;;;21.50;14.65;;;4.30;99.90;;;;;;4943130;28;20039;-78
2022/09/29 05:24:15;;;;;;;18.02;13.18;;;4.30;99.90;;;;;;4958615;28;20042;-78
2022/09/29 05:26:40;;;;;;;15.93;11.18;;;4.20;99.90;;;;;;4945736;28;20053;-79
2022/09/29 05:29:06;;;;;;;18.60;12.85;;;4.20;99.90;;;;;;4955144;28;20038;-78
2022/09/29 05:31:31;;;;;;;18.48;13.82;;;4.30;99.90;;;;;;4945120;28;20038;-78
2022/09/29 05:33:57;;;;;;;19.23;13.43;;;4.30;99.90;;;;;;4943722;28;20023;-78
2022/09/29 05:36:23;;;;;;;16.70;12.85;;;4.20;99.90;;;;;;4943516;28;20066;-78
2022/09/29 05:38:49;;;;;;;17.88;12.45;;;4.20;99.90;;;;;;4944956;28;20043;-79
2022/09/29 05:41:21;;;;;;;18.20;12.30;;;4.30;99.90;;;;;;4960835;28;20062;-79
2022/09/29 05:43:47;;;;;;;14.10;10.40;;;4.30;99.90;;;;;;4970323;28;20042;-79
2022/09/29 05:46:13;;;;;;;16.10;10.95;;;4.30;99.90;;;;;;4943146;28;20042;-79
2022/09/29 05:48:39;;;;;;;20.00;13.23;;;4.40;99.90;;;;;;4957889;28;20027;-79
2022/09/29 05:51:09;;;;;;;19.58;13.57;;;4.50;99.90;;;;;;4942529;28;20035;-79
2022/09/29 05:53:35;;;;;;;13.07;10.32;;;4.40;99.90;;;;;;4951891;28;20035;-79
2022/09/29 05:56:14;;;;;;;19.52;14.32;;;4.50;99.90;;;;;;4943997;28;20565;-80
2022/09/29 05:58:40;;;;;;;16.33;12.85;;;4.40;99.90;;;;;;4946062;28;20085;-80
2022/09/29 06:01:06;;;;;;;13.57;10.75;;;4.40;99.90;;;;;;4941374;28;20507;-80
2022/09/29 06:03:34;;;;;;;18.30;12.25;;;4.40;99.90;;;;;;4962249;28;20045;-80
2022/09/29 06:06:10;;;;;;;12.68;10.13;;;4.50;99.90;;;;;;4973388;28;20031;-80
2022/09/29 06:08:36;;;;;;;14.93;10.32;;;4.50;99.90;;;;;;4940332;28;20451;-80
2022/09/29 06:11:05;;;;;;;16.98;9.95;;;4.60;99.90;;;;;;4956435;28;20043;-80
2022/09/29 06:13:30;;;;;;;15.77;11.65;;;4.60;99.90;;;;;;4957981;28;20055;-80
2022/09/29 06:15:58;;;;;;;21.95;13.80;;;4.60;99.90;;;;;;4962803;28;20435;-79
2022/09/29 06:18:23;;;;;;;25.73;14.77;;;4.50;99.90;;;;;;4959551;28;20039;-80
2022/09/29 06:20:49;;;;;;;21.02;14.05;;;4.60;99.90;;;;;;4959918;28;20031;-79
2022/09/29 06:23:15;;;;;;;17.20;11.90;;;4.60;99.90;;;;;;4943206;28;20083;-80
2022/09/29 06:25:41;;;;;;;17.45;12.43;;;4.70;99.90;;;;;;4962155;28;20340;-80
2022/09/29 06:28:06;;;;;;;17.83;10.98;;;5.00;99.90;;;;;;4948923;28;20031;-80
2022/09/29 06:30:32;;;;;;;19.42;12.80;;;5.00;99.90;;;;;;4958463;28;20031;-80
2022/09/29 06:33:01;;;;;;;12.98;9.20;;;5.10;99.90;;;;;;4955879;28;20444;-81
2022/09/29 06:38:11;;;;;;;17.83;12.55;;;5.20;99.90;;;;;;4959888;28;20085;-80
2022/09/29 06:40:36;;;;;;;21.00;14.30;;;5.30;99.90;;;;;;4944574;28;20032;-80
2022/09/29 06:43:02;;;;;;;21.65;13.55;;;5.30;99.90;;;;;;4946079;28;20459;-80
2022/09/29 06:45:28;;;;;;;13.80;10.43;;;5.40;99.90;;;;;;4942206;28;20043;-80
2022/09/29 06:48:02;;;;;;;17.30;13.13;;;5.50;99.90;;;;;;4942363;28;20065;-80
2022/09/29 06:50:28;;;;;;;20.48;13.95;;;5.60;99.90;;;;;;4949397;28;20101;-80
2022/09/29 06:52:53;;;;;;;16.40;11.10;;;5.60;99.90;;;;;;4974679;28;20151;-80
2022/09/29 06:55:19;;;;;;;18.02;12.63;;;5.80;99.90;;;;;;4960670;28;20105;-80
2022/09/29 06:57:44;;;;;;;19.13;14.07;;;6.00;99.90;;;;;;4942175;28;20034;-80
2022/09/29 07:00:10;;;;;;;15.50;12.07;;;6.00;99.90;;;;;;4963286;28;20039;-80
2022/09/29 07:02:37;;;;;;;22.77;14.80;;;6.00;99.90;;;;;;4956433;28;20031;-80
2022/09/29 07:05:04;;;;;;;21.33;14.93;;;6.10;99.90;;;;;;4958313;28;20648;-80
2022/09/29 07:07:30;;;;;;;19.92;15.60;;;6.20;99.90;;;;;;4959352;28;20428;-80
2022/09/29 07:09:56;;;;;;;14.95;10.63;;;6.30;99.90;;;;;;4946638;28;20955;-80
2022/09/29 07:12:22;;;;;;;17.55;12.43;;;6.40;99.90;;;;;;4946471;28;20039;-80
2022/09/29 07:14:47;;;;;;;19.83;14.10;;;6.50;99.90;;;;;;4957672;28;20439;-80
2022/09/29 07:17:14;;;;;;;20.30;12.70;;;6.50;99.90;;;;;;4962134;28;20031;-80
2022/09/29 07:19:39;;;;;;;16.80;11.15;;;6.70;99.90;;;;;;4970002;28;20040;-80
2022/09/29 07:22:05;;;;;;;20.65;14.43;;;7.00;99.90;;;;;;4943955;28;20037;-80
2022/09/29 07:24:31;;;;;;;20.10;13.30;;;6.90;99.90;;;;;;4956473;28;20093;-79
2022/09/29 07:26:59;;;;;;;19.25;13.82;;;6.90;99.90;;;;;;4957358;28;20179;-79
2022/09/29 07:29:24;;;;;;;23.08;13.73;;;7.00;99.90;;;;;;4971633;28;20479;-78
2022/09/29 07:31:51;;;;;;;19.02;14.52;;;7.10;99.90;;;;;;4942054;28;20082;-79
2022/09/29 07:34:17;;;;;;;18.98;12.38;;;7.30;99.90;;;;;;4948735;28;20173;-79
2022/09/29 07:36:43;;;;;;;12.95;9.15;;;7.60;99.90;;;;;;4954317;28;20500;-80
2022/09/29 07:39:09;;;;;;;19.00;13.50;;;7.90;99.90;;;;;;4961488;28;20059;-79
2022/09/29 07:41:35;;;;;;;16.02;10.65;;;8.00;99.90;;;;;;4955670;28;20376;-80
2022/09/29 07:44:01;;;;;;;15.00;11.57;;;8.40;99.90;;;;;;4958793;28;20037;-79
2022/09/29 07:46:26;;;;;;;12.98;10.90;;;8.20;99.90;;;;;;4957117;28;20490;-79
2022/09/29 07:48:52;;;;;;;16.48;12.23;;;8.60;99.90;;;;;;4959886;28;20035;-79
2022/09/29 07:51:18;;;;;;;15.25;10.43;;;8.60;99.90;;;;;;4963210;28;20352;-78
2022/09/29 07:53:44;;;;;;;17.17;12.57;;;8.50;99.90;;;;;;4960024;28;20741;-78
2022/09/29 07:56:10;;;;;;;20.42;12.23;;;8.70;99.90;;;;;;4964203;28;20050;-77
2022/09/29 07:58:36;;;;;;;21.70;12.73;;;8.80;99.90;;;;;;4957041;28;20035;-77
2022/09/29 08:01:05;;;;;;;12.20;10.23;;;9.10;99.90;;;;;;4944995;28;20480;-78
2022/09/29 08:03:30;;;;;;;15.35;10.45;;;9.10;99.90;;;;;;4959922;28;20426;-79
2022/09/29 08:05:59;;;;;;;14.07;10.85;;;9.50;99.90;;;;;;4947863;28;20037;-78
2022/09/29 08:08:24;;;;;;;15.45;9.57;;;9.70;99.90;;;;;;4940210;28;20047;-79
2022/09/29 08:10:51;;;;;;;12.68;9.63;;;9.70;99.90;;;;;;4948278;28;20530;-79
2022/09/29 08:13:17;;;;;;;15.02;9.80;;;10.00;99.90;;;;;;4958788;28;20037;-79
2022/09/29 08:15:42;;;;;;;18.90;13.82;;;10.10;99.90;;;;;;4931521;28;20127;-79
2022/09/29 08:18:08;;;;;;;17.35;12.55;;;9.80;99.90;;;;;;4939181;28;20101;-78
2022/09/29 08:20:36;;;;;;;10.95;9.20;;;9.80;99.90;;;;;;4973820;28;20133;-80
2022/09/29 08:23:02;;;;;;;17.17;11.95;;;9.80;99.90;;;;;;4926745;28;20027;-78
2022/09/29 08:25:27;;;;;;;13.43;10.38;;;10.10;99.90;;;;;;4972766;28;20035;-79
2022/09/29 08:27:53;;;;;;;19.92;15.35;;;10.20;99.90;;;;;;4959157;28;20039;-79
2022/09/29 08:30:19;;;;;;;18.90;14.07;;;10.30;99.90;;;;;;4944706;28;20126;-79
2022/09/29 08:32:53;;;;;;;11.52;9.48;;;10.30;99.90;;;;;;4961153;28;20448;-79
2022/09/29 08:35:19;;;;;;;15.95;10.50;;;10.50;99.90;;;;;;4958187;28;20090;-79
2022/09/29 08:37:45;;;;;;;17.42;10.55;;;11.10;99.90;;;;;;4947572;28;20063;-79
2022/09/29 08:40:11;;;;;;;13.50;11.13;;;10.90;99.90;;;;;;4947766;28;20060;-79
2022/09/29 08:43:02;;;;;;;20.58;13.70;;;11.20;99.90;;;;;;4974273;28;20038;-79
2022/09/29 08:45:32;;;;;;;12.25;10.68;;;10.90;99.90;;;;;;4959600;28;20574;-79
2022/09/29 08:48:24;;;;;;;11.63;8.38;;;11.20;99.90;;;;;;4960300;28;20154;-79
2022/09/29 08:51:04;;;;;;;12.10;8.57;;;11.50;99.90;;;;;;4940791;28;20031;-79
2022/09/29 08:53:34;;;;;;;18.98;11.93;;;11.80;99.90;;;;;;4940573;28;20034;-79
2022/09/29 08:56:05;;;;;;;15.25;11.15;;;11.30;99.90;;;;;;4973268;28;20471;-79
2022/09/29 08:58:31;;;;;;;9.75;7.93;;;11.80;99.90;;;;;;4941618;28;20027;-79
2022/09/29 09:00:57;;;;;;;14.75;8.70;;;11.80;99.90;;;;;;4942140;28;20027;-78
2022/09/29 09:03:42;;;;;;;12.75;8.23;;;12.50;99.90;;;;;;4961085;28;20507;-79
2022/09/29 09:06:13;;;;;;;9.68;7.53;;;12.60;99.90;;;;;;4943164;28;20042;-79
2022/09/29 09:08:40;;;;;;;10.13;7.95;;;12.80;99.90;;;;;;4942427;28;20258;-79
2022/09/29 09:11:20;;;;;;;14.25;9.00;;;12.80;99.90;;;;;;4957802;28;20198;-79
2022/09/29 09:13:52;;;;;;;9.25;7.18;;;13.00;99.90;;;;;;4946866;28;20798;-79
2022/09/29 09:16:49;;;;;;;6.93;6.32;;;13.50;99.90;;;;;;4960676;28;20399;-78
2022/09/29 09:19:33;;;;;;;7.30;6.40;;;13.60;99.90;;;;;;4924959;28;20070;-78
2022/09/29 09:22:21;;;;;;;10.20;7.82;;;14.00;99.90;;;;;;4957355;28;20098;-79
2022/09/29 09:24:51;;;;;;;10.50;7.90;;;14.20;99.90;;;;;;4954567;28;20031;-79
2022/09/29 09:27:21;;;;;;;8.90;6.45;;;14.30;99.90;;;;;;4958785;28;20039;-79
2022/09/29 09:29:47;;;;;;;6.75;6.13;;;14.10;99.90;;;;;;4958220;28;20066;-79
2022/09/29 09:32:13;;;;;;;8.18;6.05;;;13.40;99.90;;;;;;4960862;28;20173;-80
2022/09/29 09:35:04;;;;;;;9.93;7.35;;;14.10;99.90;;;;;;4942776;28;20518;-80
2022/09/29 09:37:38;;;;;;;7.78;7.07;;;13.40;99.90;;;;;;4957224;28;20040;-79
2022/09/29 09:40:19;;;;;;;10.57;6.55;;;13.10;99.90;;;;;;4942354;28;20034;-79
2022/09/29 09:42:56;;;;;;;10.20;7.22;;;12.60;99.90;;;;;;4943884;28;20034;-79
2022/09/29 09:45:47;;;;;;;6.63;5.50;;;12.40;99.90;;;;;;4928486;28;20987;-79
2022/09/29 09:48:15;;;;;;;8.60;5.82;;;12.40;99.90;;;;;;4955639;28;20491;-80
2022/09/29 09:50:41;;;;;;;6.70;5.68;;;13.90;99.90;;;;;;4938880;28;20160;-79
2022/09/29 09:53:27;;;;;;;5.18;4.30;;;12.90;99.90;;;;;;4954079;28;20183;-79
2022/09/29 09:56:02;;;;;;;6.25;4.15;;;13.20;99.90;;;;;;4951986;28;20058;-80
2022/09/29 09:58:44;;;;;;;5.93;4.43;;;14.50;99.90;;;;;;4926601;28;20083;-79
2022/09/29 10:01:11;;;;;;;4.07;3.67;;;15.00;99.90;;;;;;4949678;28;20514;-80
2022/09/29 10:03:37;;;;;;;4.97;4.28;;;15.40;99.90;;;;;;4947165;28;20031;-80
2022/09/29 10:06:03;;;;;;;6.00;4.10;;;14.70;99.90;;;;;;4928864;28;20400;-80
2022/09/29 10:08:31;;;;;;;6.47;3.90;;;15.20;99.90;;;;;;4923799;28;20039;-79
2022/09/29 10:10:57;;;;;;;4.78;4.03;;;15.20;99.90;;;;;;4941283;28;20499;-78
2022/09/29 10:13:24;;;;;;;4.60;3.47;;;15.80;99.90;;;;;;4952838;28;20057;-78
2022/09/29 10:16:05;;;;;;;4.18;2.53;;;16.60;99.90;;;;;;4928823;28;20496;-78
2022/09/29 10:18:38;;;;;;;4.45;2.33;;;16.80;99.90;;;;;;4961602;28;20395;-79
2022/09/29 10:21:19;;;;;;;3.00;2.40;;;16.70;99.90;;;;;;4946093;28;20487;-79
2022/09/29 10:23:52;;;;;;;2.75;2.25;;;16.10;99.90;;;;;;4955810;28;20035;-80
2022/09/29 10:26:24;;;;;;;2.97;2.00;;;16.20;99.90;;;;;;4932343;28;20386;-80
2022/09/29 10:29:12;;;;;;;5.07;2.10;;;17.00;99.90;;;;;;4936998;28;20140;-80
2022/09/29 10:31:37;;;;;;;3.08;2.20;;;17.00;99.90;;;;;;4941166;28;20043;-80
2022/09/29 10:34:14;;;;;;;4.40;2.22;;;17.40;99.90;;;;;;4953324;28;20368;-79
2022/09/29 10:36:57;;;;;;;5.30;2.28;;;17.70;99.90;;;;;;4964241;28;20032;-80
2022/09/29 10:39:40;;;;;;;4.10;1.80;;;17.90;99.90;;;;;;4953240;28;20411;-79
2022/09/29 10:42:24;;;;;;;3.10;1.73;;;18.00;99.90;;;;;;4925209;28;20037;-80
2022/09/29 10:45:10;;;;;;;2.90;2.50;;;18.40;99.90;;;;;;4941431;28;20062;-79
2022/09/29 10:47:36;;;;;;;4.65;2.38;;;18.70;99.90;;;;;;4958309;28;20034;-80
2022/09/29 10:50:20;;;;;;;4.03;2.17;;;18.30;99.90;;;;;;4942089;28;20041;-80
2022/09/29 10:52:54;;;;;;;4.50;1.98;;;19.20;99.90;;;;;;4956720;28;20035;-80
2022/09/29 10:55:27;;;;;;;7.35;1.95;;;18.50;99.90;;;;;;4964092;28;20753;-80
2022/09/29 10:57:54;;;;;;;5.80;2.13;;;19.50;99.90;;;;;;4961138;28;20039;-80
2022/09/29 11:00:27;;;;;;;2.55;1.70;;;19.80;99.90;;;;;;4931350;28;20126;-80
2022/09/29 11:03:01;;;;;;;5.15;1.98;;;19.60;99.90;;;;;;4945740;28;20071;-80
2022/09/29 11:05:27;;;;;;;2.47;1.60;;;20.40;99.90;;;;;;4953167;28;20027;-80
2022/09/29 11:07:53;;;;;;;1.70;1.30;;;20.20;99.90;;;;;;4961107;28;20045;-80
2022/09/29 11:10:32;;;;;;;2.30;1.55;;;20.00;99.90;;;;;;4925275;28;20034;-80
2022/09/29 11:12:59;;;;;;;2.80;1.50;;;20.10;99.90;;;;;;4943184;28;20110;-81
2022/09/29 11:15:27;;;;;;;2.95;1.95;;;20.50;99.90;;;;;;4960091;28;20035;-81
2022/09/29 11:17:53;;;;;;;5.53;1.80;;;19.90;99.90;;;;;;4943061;28;20565;-81
2022/09/29 11:20:19;;;;;;;3.03;1.30;;;19.90;99.90;;;;;;4944659;28;20125;-81
2022/09/29 11:22:55;;;;;;;9.98;2.53;;;19.50;99.90;;;;;;4943405;28;20516;-81
2022/09/29 11:25:58;;;;;;;1.95;1.58;;;19.10;99.90;;;;;;4939893;28;20028;-81
2022/09/29 11:28:32;;;;;;;2.28;1.35;;;19.10;99.90;;;;;;4952797;28;20050;-82
2022/09/29 11:31:08;;;;;;;2.75;1.42;;;20.00;99.90;;;;;;4945416;28;20067;-81
2022/09/29 11:34:01;;;;;;;1.40;1.17;;;21.20;99.90;;;;;;4959943;28;20027;-82
2022/09/29 11:36:31;;;;;;;2.28;1.35;;;20.90;99.90;;;;;;4945838;28;20051;-82
2022/09/29 11:39:02;;;;;;;3.30;1.38;;;21.90;99.90;;;;;;4941753;28;20167;-81
2022/09/29 11:41:49;;;;;;;1.10;1.00;;;21.30;99.90;;;;;;4956521;28;20316;-83
2022/09/29 11:44:27;;;;;;;1.85;1.00;;;20.00;99.90;;;;;;4957180;28;20031;-82
2022/09/29 11:46:53;;;;;;;2.08;1.20;;;20.00;99.90;;;;;;4958613;28;20100;-82
2022/09/29 11:49:38;;;;;;;3.40;1.27;;;20.70;99.90;;;;;;4957687;28;20038;-82
2022/09/29 11:52:28;;;;;;;3.25;1.35;;;20.70;99.90;;;;;;4965478;28;20035;-83
2022/09/29 11:55:15;;;;;;;3.72;1.23;;;21.80;99.90;;;;;;4956451;28;20027;-83
2022/09/29 11:57:46;;;;;;;2.80;1.08;;;20.80;99.90;;;;;;4957232;28;20059;-82
2022/09/29 12:00:16;;;;;;;1.98;1.25;;;20.50;99.90;;;;;;4943709;28;20148;-81
2022/09/29 12:02:50;;;;;;;3.90;0.90;;;20.90;99.90;;;;;;4960450;28;20136;-82
2022/09/29 12:05:35;;;;;;;4.57;1.05;;;22.40;99.40;;;;;;4969093;28;20030;-82
2022/09/29 12:08:22;;;;;;;4.18;1.40;;;22.70;98.10;;;;;;4961326;28;20073;-81
2022/09/29 12:11:03;;;;;;;1.83;1.35;;;21.40;99.90;;;;;;4951545;28;20487;-81
2022/09/29 12:13:41;;;;;;;2.38;1.13;;;19.90;99.90;;;;;;4952585;28;20043;-81
2022/09/29 12:16:11;;;;;;;2.60;1.20;;;21.20;99.90;;;;;;4952709;28;20117;-81
2022/09/29 12:18:47;;;;;;;2.15;1.15;;;21.60;99.90;;;;;;4929200;28;20035;-81
2022/09/29 12:21:12;;;;;;;2.55;0.85;;;20.60;99.90;;;;;;4942005;28;20038;-81
2022/09/29 12:23:38;;;;;;;6.40;1.23;;;22.00;99.90;;;;;;4945248;28;20024;-81
2022/09/29 12:26:15;;;;;;;1.73;1.02;;;23.00;96.50;;;;;;4946126;28;20031;-81
2022/09/29 12:28:44;;;;;;;4.10;0.90;;;22.30;99.90;;;;;;4928228;28;20027;-81
2022/09/29 12:31:36;;;;;;;1.55;0.90;;;22.20;99.90;;;;;;4941737;28;20114;-81
2022/09/29 12:34:13;;;;;;;2.20;1.00;;;23.50;95.80;;;;;;4948981;28;20042;-81
2022/09/29 12:36:54;;;;;;;2.35;1.05;;;22.00;99.90;;;;;;4940787;28;20027;-81
2022/09/29 12:39:38;;;;;;;1.75;0.80;;;23.70;94.90;;;;;;4273498;28;10000466;-82
2022/09/29 12:42:34;;;;;;;2.15;0.80;;;24.30;91.70;;;;;;4956078;28;20114;-82
2022/09/29 12:45:00;;;;;;;;;;;24.30;90.70;;;;;;4943768;28;20114;-82
2022/09/29 12:47:54;;;;;;;2.70;0.80;;;23.50;94.10;;;;;;4958809;28;19993;-82
2022/09/29 12:50:26;;;;;;;2.58;0.85;;;23.70;92.10;;;;;;4956330;28;20038;-82
2022/09/29 12:53:08;;;;;;;0.65;0.65;;;24.30;90.80;;;;;;4931006;28;20027;-82
2022/09/29 12:55:40;;;;;;;4.22;1.20;;;24.90;88.70;;;;;;4948753;28;20074;-82
2022/09/29 12:58:08;;;;;;;3.20;1.30;;;23.60;92.90;;;;;;4955665;28;20414;-81
2022/09/29 13:00:34;;;;;;;1.73;0.75;;;23.00;99.20;;;;;;4939075;28;20035;-82
2022/09/29 13:03:24;;;;;;;2.10;1.02;;;22.30;97.90;;;;;;4945440;28;20031;-82